sensor_id;sensor_type;location;lat;lon;timestamp;P1;durP1;ratioP1;P2;durP2;ratioP2
13816;SDS011;6979;52.116;5.286;2022-10-26T00:00:08;4.63;;;3.67;;
13816;SDS011;6979;52.116;5.286;2022-10-26T00:02:38;5.07;;;3.73;;
13816;SDS011;6979;52.116;5.286;2022-10-26T00:05:07;6.07;;;3.53;;
13816;SDS011;6979;52.116;5.286;2022-10-26T00:07:34;3.53;;;3.23;;
13816;SDS011;6979;52.116;5.286;2022-10-26T00:10:03;5.70;;;4.17;;
13816;SDS011;6979;52.116;5.286;2022-10-26T00:12:30;3.60;;;3.00;;
13816;SDS011;6979;52.116;5.286;2022-10-26T00:15:01;3.70;;;3.00;;
13816;SDS011;6979;52.116;5.286;2022-10-26T00:17:28;3.63;;;3.33;;
13816;SDS011;6979;52.116;5.286;2022-10-26T00:19:55;3.20;;;2.87;;
13816;SDS011;6979;52.116;5.286;2022-10-26T00:22:27;3.50;;;3.30;;
13816;SDS011;6979;52.116;5.286;2022-10-26T00:24:54;3.50;;;3.20;;
13816;SDS011;6979;52.116;5.286;2022-10-26T00:27:24;4.17;;;3.23;;
13816;SDS011;6979;52.116;5.286;2022-10-26T00:29:50;5.23;;;3.40;;
13816;SDS011;6979;52.116;5.286;2022-10-26T00:32:19;3.40;;;3.20;;
13816;SDS011;6979;52.116;5.286;2022-10-26T00:34:46;2.90;;;2.70;;
13816;SDS011;6979;52.116;5.286;2022-10-26T00:37:13;3.43;;;3.13;;
13816;SDS011;6979;52.116;5.286;2022-10-26T00:39:43;4.53;;;3.23;;
13816;SDS011;6979;52.116;5.286;2022-10-26T00:42:11;3.57;;;3.13;;
13816;SDS011;6979;52.116;5.286;2022-10-26T00:47:48;5.87;;;3.33;;
13816;SDS011;6979;52.116;5.286;2022-10-26T00:50:18;3.50;;;3.03;;
13816;SDS011;6979;52.116;5.286;2022-10-26T00:52:50;4.00;;;3.20;;
13816;SDS011;6979;52.116;5.286;2022-10-26T00:55:20;3.60;;;3.30;;
13816;SDS011;6979;52.116;5.286;2022-10-26T00:57:52;3.00;;;2.80;;
13816;SDS011;6979;52.116;5.286;2022-10-26T01:00:21;3.10;;;2.90;;
13816;SDS011;6979;52.116;5.286;2022-10-26T01:02:54;3.00;;;2.80;;
13816;SDS011;6979;52.116;5.286;2022-10-26T01:05:22;5.60;;;3.40;;
13816;SDS011;6979;52.116;5.286;2022-10-26T01:07:49;4.87;;;3.50;;
13816;SDS011;6979;52.116;5.286;2022-10-26T01:10:17;4.03;;;3.50;;
13816;SDS011;6979;52.116;5.286;2022-10-26T01:12:46;4.03;;;3.33;;
13816;SDS011;6979;52.116;5.286;2022-10-26T01:15:13;4.63;;;3.63;;
13816;SDS011;6979;52.116;5.286;2022-10-26T01:17:50;3.90;;;3.67;;
13816;SDS011;6979;52.116;5.286;2022-10-26T01:20:30;4.43;;;4.00;;
13816;SDS011;6979;52.116;5.286;2022-10-26T01:23:19;4.80;;;4.00;;
13816;SDS011;6979;52.116;5.286;2022-10-26T01:26:11;5.03;;;3.57;;
13816;SDS011;6979;52.116;5.286;2022-10-26T01:29:02;4.83;;;3.83;;
13816;SDS011;6979;52.116;5.286;2022-10-26T01:31:56;4.60;;;4.20;;
13816;SDS011;6979;52.116;5.286;2022-10-26T01:34:28;4.80;;;4.40;;
13816;SDS011;6979;52.116;5.286;2022-10-26T01:37:04;4.50;;;4.10;;
13816;SDS011;6979;52.116;5.286;2022-10-26T01:39:40;7.50;;;4.23;;
13816;SDS011;6979;52.116;5.286;2022-10-26T01:42:11;4.07;;;3.70;;
13816;SDS011;6979;52.116;5.286;2022-10-26T01:44:44;4.47;;;4.03;;
13816;SDS011;6979;52.116;5.286;2022-10-26T01:47:18;4.47;;;4.13;;
13816;SDS011;6979;52.116;5.286;2022-10-26T01:49:47;5.03;;;4.13;;
13816;SDS011;6979;52.116;5.286;2022-10-26T01:52:18;4.60;;;4.17;;
13816;SDS011;6979;52.116;5.286;2022-10-26T01:54:47;5.00;;;4.60;;
13816;SDS011;6979;52.116;5.286;2022-10-26T01:57:15;4.80;;;4.50;;
13816;SDS011;6979;52.116;5.286;2022-10-26T02:02:40;4.10;;;3.70;;
13816;SDS011;6979;52.116;5.286;2022-10-26T02:08:27;4.70;;;4.37;;
13816;SDS011;6979;52.116;5.286;2022-10-26T02:11:09;5.27;;;4.27;;
13816;SDS011;6979;52.116;5.286;2022-10-26T02:13:42;4.03;;;3.73;;
13816;SDS011;6979;52.116;5.286;2022-10-26T02:16:14;5.30;;;4.50;;
13816;SDS011;6979;52.116;5.286;2022-10-26T02:18:51;3.97;;;3.67;;
13816;SDS011;6979;52.116;5.286;2022-10-26T02:21:28;4.33;;;4.03;;
13816;SDS011;6979;52.116;5.286;2022-10-26T02:24:00;3.97;;;3.57;;
13816;SDS011;6979;52.116;5.286;2022-10-26T02:26:33;5.40;;;4.90;;
13816;SDS011;6979;52.116;5.286;2022-10-26T02:29:05;4.30;;;3.97;;
13816;SDS011;6979;52.116;5.286;2022-10-26T02:31:34;4.33;;;3.97;;
13816;SDS011;6979;52.116;5.286;2022-10-26T02:34:05;4.30;;;3.90;;
13816;SDS011;6979;52.116;5.286;2022-10-26T02:36:37;3.67;;;3.37;;
13816;SDS011;6979;52.116;5.286;2022-10-26T02:39:09;4.30;;;3.20;;
13816;SDS011;6979;52.116;5.286;2022-10-26T02:41:37;3.47;;;3.17;;
13816;SDS011;6979;52.116;5.286;2022-10-26T02:44:06;4.37;;;3.50;;
13816;SDS011;6979;52.116;5.286;2022-10-26T02:46:38;4.07;;;3.70;;
13816;SDS011;6979;52.116;5.286;2022-10-26T02:49:07;7.40;;;3.87;;
13816;SDS011;6979;52.116;5.286;2022-10-26T02:51:35;3.80;;;3.40;;
13816;SDS011;6979;52.116;5.286;2022-10-26T02:54:08;3.87;;;3.57;;
13816;SDS011;6979;52.116;5.286;2022-10-26T02:56:41;3.47;;;3.10;;
13816;SDS011;6979;52.116;5.286;2022-10-26T02:59:13;3.90;;;3.50;;
13816;SDS011;6979;52.116;5.286;2022-10-26T03:01:44;4.57;;;3.67;;
13816;SDS011;6979;52.116;5.286;2022-10-26T03:04:12;3.50;;;3.20;;
13816;SDS011;6979;52.116;5.286;2022-10-26T03:06:39;4.07;;;3.77;;
13816;SDS011;6979;52.116;5.286;2022-10-26T03:09:06;3.47;;;3.23;;
13816;SDS011;6979;52.116;5.286;2022-10-26T03:11:33;4.20;;;3.80;;
13816;SDS011;6979;52.116;5.286;2022-10-26T03:13:59;3.90;;;3.60;;
13816;SDS011;6979;52.116;5.286;2022-10-26T03:16:26;5.87;;;3.57;;
13816;SDS011;6979;52.116;5.286;2022-10-26T03:18:53;3.50;;;3.20;;
13816;SDS011;6979;52.116;5.286;2022-10-26T03:21:24;4.17;;;3.87;;
13816;SDS011;6979;52.116;5.286;2022-10-26T03:23:52;3.83;;;3.43;;
13816;SDS011;6979;52.116;5.286;2022-10-26T03:26:19;5.73;;;3.67;;
13816;SDS011;6979;52.116;5.286;2022-10-26T03:28:46;3.77;;;3.47;;
13816;SDS011;6979;52.116;5.286;2022-10-26T03:31:13;6.67;;;3.83;;
13816;SDS011;6979;52.116;5.286;2022-10-26T03:33:40;3.87;;;3.27;;
13816;SDS011;6979;52.116;5.286;2022-10-26T03:36:07;3.77;;;3.43;;
13816;SDS011;6979;52.116;5.286;2022-10-26T03:38:36;3.77;;;3.47;;
13816;SDS011;6979;52.116;5.286;2022-10-26T03:41:04;3.60;;;3.30;;
13816;SDS011;6979;52.116;5.286;2022-10-26T03:43:31;3.43;;;3.10;;
13816;SDS011;6979;52.116;5.286;2022-10-26T03:45:58;3.77;;;3.33;;
13816;SDS011;6979;52.116;5.286;2022-10-26T03:48:24;3.73;;;3.43;;
13816;SDS011;6979;52.116;5.286;2022-10-26T03:50:51;3.40;;;3.10;;
13816;SDS011;6979;52.116;5.286;2022-10-26T03:53:23;3.33;;;3.03;;
13816;SDS011;6979;52.116;5.286;2022-10-26T03:55:51;3.00;;;2.80;;
13816;SDS011;6979;52.116;5.286;2022-10-26T03:58:18;3.03;;;2.83;;
13816;SDS011;6979;52.116;5.286;2022-10-26T04:00:45;3.47;;;3.07;;
13816;SDS011;6979;52.116;5.286;2022-10-26T04:03:12;3.80;;;3.40;;
13816;SDS011;6979;52.116;5.286;2022-10-26T04:05:39;5.27;;;3.60;;
13816;SDS011;6979;52.116;5.286;2022-10-26T04:08:07;3.63;;;3.20;;
13816;SDS011;6979;52.116;5.286;2022-10-26T04:10:45;5.20;;;3.50;;
13816;SDS011;6979;52.116;5.286;2022-10-26T04:13:13;3.63;;;3.33;;
13816;SDS011;6979;52.116;5.286;2022-10-26T04:15:40;3.67;;;3.37;;
13816;SDS011;6979;52.116;5.286;2022-10-26T04:18:07;3.87;;;3.43;;
13816;SDS011;6979;52.116;5.286;2022-10-26T04:20:37;3.93;;;3.73;;
13816;SDS011;6979;52.116;5.286;2022-10-26T04:23:06;4.13;;;3.80;;
13816;SDS011;6979;52.116;5.286;2022-10-26T04:25:35;3.83;;;3.50;;
13816;SDS011;6979;52.116;5.286;2022-10-26T04:28:06;4.00;;;3.60;;
13816;SDS011;6979;52.116;5.286;2022-10-26T04:30:34;4.40;;;4.00;;
13816;SDS011;6979;52.116;5.286;2022-10-26T04:33:02;3.97;;;3.67;;
13816;SDS011;6979;52.116;5.286;2022-10-26T04:35:29;4.23;;;3.20;;
13816;SDS011;6979;52.116;5.286;2022-10-26T04:37:56;6.10;;;3.57;;
13816;SDS011;6979;52.116;5.286;2022-10-26T04:40:24;4.20;;;3.80;;
13816;SDS011;6979;52.116;5.286;2022-10-26T04:42:58;3.43;;;3.13;;
13816;SDS011;6979;52.116;5.286;2022-10-26T04:45:33;3.60;;;3.30;;
13816;SDS011;6979;52.116;5.286;2022-10-26T04:48:07;3.37;;;3.00;;
13816;SDS011;6979;52.116;5.286;2022-10-26T04:50:36;4.00;;;3.33;;
13816;SDS011;6979;52.116;5.286;2022-10-26T04:53:04;3.60;;;3.30;;
13816;SDS011;6979;52.116;5.286;2022-10-26T04:55:31;3.60;;;3.30;;
13816;SDS011;6979;52.116;5.286;2022-10-26T04:57:58;4.13;;;3.70;;
13816;SDS011;6979;52.116;5.286;2022-10-26T05:00:25;3.67;;;2.73;;
13816;SDS011;6979;52.116;5.286;2022-10-26T05:02:58;5.00;;;3.47;;
13816;SDS011;6979;52.116;5.286;2022-10-26T05:05:25;2.33;;;2.20;;
13816;SDS011;6979;52.116;5.286;2022-10-26T05:07:52;4.73;;;3.27;;
13816;SDS011;6979;52.116;5.286;2022-10-26T05:10:22;4.30;;;2.80;;
13816;SDS011;6979;52.116;5.286;2022-10-26T05:12:51;3.67;;;3.37;;
13816;SDS011;6979;52.116;5.286;2022-10-26T05:15:19;3.73;;;2.47;;
13816;SDS011;6979;52.116;5.286;2022-10-26T05:17:46;3.53;;;2.77;;
13816;SDS011;6979;52.116;5.286;2022-10-26T05:20:14;3.63;;;2.60;;
13816;SDS011;6979;52.116;5.286;2022-10-26T05:22:41;2.63;;;2.43;;
13816;SDS011;6979;52.116;5.286;2022-10-26T05:25:08;2.80;;;2.60;;
13816;SDS011;6979;52.116;5.286;2022-10-26T05:27:34;2.60;;;2.40;;
13816;SDS011;6979;52.116;5.286;2022-10-26T05:30:01;3.87;;;2.73;;
13816;SDS011;6979;52.116;5.286;2022-10-26T05:32:28;4.63;;;3.07;;
13816;SDS011;6979;52.116;5.286;2022-10-26T05:34:55;6.13;;;2.93;;
13816;SDS011;6979;52.116;5.286;2022-10-26T05:37:24;3.40;;;2.80;;
13816;SDS011;6979;52.116;5.286;2022-10-26T05:39:56;5.23;;;2.73;;
13816;SDS011;6979;52.116;5.286;2022-10-26T05:42:23;4.50;;;2.63;;
13816;SDS011;6979;52.116;5.286;2022-10-26T05:44:50;3.30;;;2.97;;
13816;SDS011;6979;52.116;5.286;2022-10-26T05:47:17;3.50;;;2.80;;
13816;SDS011;6979;52.116;5.286;2022-10-26T05:49:44;4.07;;;2.27;;
13816;SDS011;6979;52.116;5.286;2022-10-26T05:52:10;2.70;;;2.50;;
13816;SDS011;6979;52.116;5.286;2022-10-26T05:54:38;4.33;;;2.90;;
13816;SDS011;6979;52.116;5.286;2022-10-26T05:57:08;2.87;;;2.67;;
13816;SDS011;6979;52.116;5.286;2022-10-26T05:59:37;3.40;;;3.10;;
13816;SDS011;6979;52.116;5.286;2022-10-26T06:02:08;3.43;;;2.73;;
13816;SDS011;6979;52.116;5.286;2022-10-26T06:04:41;3.03;;;2.83;;
13816;SDS011;6979;52.116;5.286;2022-10-26T06:07:13;3.37;;;3.03;;
13816;SDS011;6979;52.116;5.286;2022-10-26T06:09:55;4.37;;;2.80;;
13816;SDS011;6979;52.116;5.286;2022-10-26T06:12:23;2.40;;;2.20;;
13816;SDS011;6979;52.116;5.286;2022-10-26T06:15:39;3.00;;;2.70;;
13816;SDS011;6979;52.116;5.286;2022-10-26T06:18:19;2.77;;;2.57;;
13816;SDS011;6979;52.116;5.286;2022-10-26T06:20:54;3.10;;;2.90;;
13816;SDS011;6979;52.116;5.286;2022-10-26T06:23:39;5.17;;;2.60;;
13816;SDS011;6979;52.116;5.286;2022-10-26T06:26:17;4.20;;;3.10;;
13816;SDS011;6979;52.116;5.286;2022-10-26T06:28:54;5.07;;;2.83;;
13816;SDS011;6979;52.116;5.286;2022-10-26T06:31:27;3.20;;;3.00;;
13816;SDS011;6979;52.116;5.286;2022-10-26T06:33:55;6.50;;;3.03;;
13816;SDS011;6979;52.116;5.286;2022-10-26T06:36:25;6.27;;;3.63;;
13816;SDS011;6979;52.116;5.286;2022-10-26T06:38:54;3.27;;;3.07;;
13816;SDS011;6979;52.116;5.286;2022-10-26T06:41:26;3.40;;;3.10;;
13816;SDS011;6979;52.116;5.286;2022-10-26T06:43:57;3.73;;;3.00;;
13816;SDS011;6979;52.116;5.286;2022-10-26T06:46:26;4.00;;;3.70;;
13816;SDS011;6979;52.116;5.286;2022-10-26T06:49:04;4.10;;;2.93;;
13816;SDS011;6979;52.116;5.286;2022-10-26T06:51:39;3.83;;;3.53;;
13816;SDS011;6979;52.116;5.286;2022-10-26T06:54:11;4.23;;;3.83;;
13816;SDS011;6979;52.116;5.286;2022-10-26T06:56:44;3.30;;;3.10;;
13816;SDS011;6979;52.116;5.286;2022-10-26T06:59:13;3.77;;;3.43;;
13816;SDS011;6979;52.116;5.286;2022-10-26T07:01:42;6.47;;;3.30;;
13816;SDS011;6979;52.116;5.286;2022-10-26T07:04:09;4.10;;;3.40;;
13816;SDS011;6979;52.116;5.286;2022-10-26T07:06:38;5.33;;;3.60;;
13816;SDS011;6979;52.116;5.286;2022-10-26T07:09:13;4.00;;;3.30;;
13816;SDS011;6979;52.116;5.286;2022-10-26T07:11:40;2.97;;;2.77;;
13816;SDS011;6979;52.116;5.286;2022-10-26T07:14:08;3.97;;;3.57;;
13816;SDS011;6979;52.116;5.286;2022-10-26T07:16:38;4.73;;;3.60;;
13816;SDS011;6979;52.116;5.286;2022-10-26T07:19:05;4.63;;;3.47;;
13816;SDS011;6979;52.116;5.286;2022-10-26T07:21:32;3.53;;;3.30;;
13816;SDS011;6979;52.116;5.286;2022-10-26T07:23:58;3.83;;;3.30;;
13816;SDS011;6979;52.116;5.286;2022-10-26T07:26:25;4.73;;;3.23;;
13816;SDS011;6979;52.116;5.286;2022-10-26T07:28:52;5.20;;;3.20;;
13816;SDS011;6979;52.116;5.286;2022-10-26T07:31:21;4.43;;;2.70;;
13816;SDS011;6979;52.116;5.286;2022-10-26T07:33:47;3.13;;;2.93;;
13816;SDS011;6979;52.116;5.286;2022-10-26T07:36:14;3.53;;;3.23;;
13816;SDS011;6979;52.116;5.286;2022-10-26T07:38:41;9.00;;;5.50;;
13816;SDS011;6979;52.116;5.286;2022-10-26T07:41:08;5.57;;;4.17;;
13816;SDS011;6979;52.116;5.286;2022-10-26T07:43:35;4.33;;;3.93;;
13816;SDS011;6979;52.116;5.286;2022-10-26T07:46:06;3.80;;;3.50;;
13816;SDS011;6979;52.116;5.286;2022-10-26T07:48:34;3.43;;;3.00;;
13816;SDS011;6979;52.116;5.286;2022-10-26T07:51:02;3.40;;;3.10;;
13816;SDS011;6979;52.116;5.286;2022-10-26T07:53:30;3.27;;;3.03;;
13816;SDS011;6979;52.116;5.286;2022-10-26T07:56:01;3.60;;;3.30;;
13816;SDS011;6979;52.116;5.286;2022-10-26T07:58:28;5.27;;;4.87;;
13816;SDS011;6979;52.116;5.286;2022-10-26T08:00:55;5.90;;;4.00;;
13816;SDS011;6979;52.116;5.286;2022-10-26T08:03:22;4.77;;;3.67;;
13816;SDS011;6979;52.116;5.286;2022-10-26T08:05:54;4.03;;;3.73;;
13816;SDS011;6979;52.116;5.286;2022-10-26T08:08:23;3.30;;;2.83;;
13816;SDS011;6979;52.116;5.286;2022-10-26T08:10:50;7.63;;;3.20;;
13816;SDS011;6979;52.116;5.286;2022-10-26T08:13:17;4.00;;;3.50;;
13816;SDS011;6979;52.116;5.286;2022-10-26T08:15:44;5.00;;;3.83;;
13816;SDS011;6979;52.116;5.286;2022-10-26T08:18:11;6.77;;;6.03;;
13816;SDS011;6979;52.116;5.286;2022-10-26T08:20:38;5.33;;;4.13;;
13816;SDS011;6979;52.116;5.286;2022-10-26T08:23:06;3.70;;;3.50;;
13816;SDS011;6979;52.116;5.286;2022-10-26T08:25:33;3.60;;;3.30;;
13816;SDS011;6979;52.116;5.286;2022-10-26T08:28:00;3.33;;;3.03;;
13816;SDS011;6979;52.116;5.286;2022-10-26T08:30:28;4.40;;;3.80;;
13816;SDS011;6979;52.116;5.286;2022-10-26T08:32:58;4.97;;;3.87;;
13816;SDS011;6979;52.116;5.286;2022-10-26T08:35:25;5.70;;;5.13;;
13816;SDS011;6979;52.116;5.286;2022-10-26T08:37:52;5.00;;;4.13;;
13816;SDS011;6979;52.116;5.286;2022-10-26T08:40:23;5.80;;;4.10;;
13816;SDS011;6979;52.116;5.286;2022-10-26T08:42:54;3.93;;;3.63;;
13816;SDS011;6979;52.116;5.286;2022-10-26T08:45:26;6.57;;;3.70;;
13816;SDS011;6979;52.116;5.286;2022-10-26T08:47:58;4.23;;;3.83;;
13816;SDS011;6979;52.116;5.286;2022-10-26T08:50:29;3.97;;;3.67;;
13816;SDS011;6979;52.116;5.286;2022-10-26T08:52:59;4.97;;;4.10;;
13816;SDS011;6979;52.116;5.286;2022-10-26T08:55:39;4.80;;;3.90;;
13816;SDS011;6979;52.116;5.286;2022-10-26T08:58:13;5.07;;;3.60;;
13816;SDS011;6979;52.116;5.286;2022-10-26T09:00:43;4.87;;;3.57;;
13816;SDS011;6979;52.116;5.286;2022-10-26T09:03:14;4.47;;;3.87;;
13816;SDS011;6979;52.116;5.286;2022-10-26T09:05:45;9.30;;;8.33;;
13816;SDS011;6979;52.116;5.286;2022-10-26T09:08:26;6.03;;;4.37;;
13816;SDS011;6979;52.116;5.286;2022-10-26T09:11:04;4.10;;;3.77;;
13816;SDS011;6979;52.116;5.286;2022-10-26T09:13:41;3.10;;;2.73;;
13816;SDS011;6979;52.116;5.286;2022-10-26T09:16:20;5.93;;;3.93;;
13816;SDS011;6979;52.116;5.286;2022-10-26T09:18:53;3.33;;;2.83;;
13816;SDS011;6979;52.116;5.286;2022-10-26T09:21:35;3.70;;;2.70;;
13816;SDS011;6979;52.116;5.286;2022-10-26T09:24:11;3.37;;;2.90;;
13816;SDS011;6979;52.116;5.286;2022-10-26T09:26:43;2.73;;;2.43;;
13816;SDS011;6979;52.116;5.286;2022-10-26T09:29:19;2.77;;;2.47;;
13816;SDS011;6979;52.116;5.286;2022-10-26T09:31:48;3.07;;;2.80;;
13816;SDS011;6979;52.116;5.286;2022-10-26T09:34:21;3.63;;;2.87;;
13816;SDS011;6979;52.116;5.286;2022-10-26T09:36:53;2.70;;;2.30;;
13816;SDS011;6979;52.116;5.286;2022-10-26T09:39:23;3.17;;;2.60;;
13816;SDS011;6979;52.116;5.286;2022-10-26T09:42:01;5.07;;;2.80;;
13816;SDS011;6979;52.116;5.286;2022-10-26T09:44:35;2.70;;;2.23;;
13816;SDS011;6979;52.116;5.286;2022-10-26T09:47:08;3.33;;;2.83;;
13816;SDS011;6979;52.116;5.286;2022-10-26T09:49:42;2.73;;;2.17;;
13816;SDS011;6979;52.116;5.286;2022-10-26T09:52:12;2.13;;;1.93;;
13816;SDS011;6979;52.116;5.286;2022-10-26T09:54:39;2.77;;;2.40;;
13816;SDS011;6979;52.116;5.286;2022-10-26T09:57:08;6.87;;;2.60;;
13816;SDS011;6979;52.116;5.286;2022-10-26T09:59:39;3.03;;;2.73;;
13816;SDS011;6979;52.116;5.286;2022-10-26T10:05:15;3.03;;;2.73;;
13816;SDS011;6979;52.116;5.286;2022-10-26T10:07:47;3.10;;;2.53;;
13816;SDS011;6979;52.116;5.286;2022-10-26T10:10:15;3.87;;;2.63;;
13816;SDS011;6979;52.116;5.286;2022-10-26T10:12:45;2.67;;;2.30;;
13816;SDS011;6979;52.116;5.286;2022-10-26T10:15:18;3.00;;;2.80;;
13816;SDS011;6979;52.116;5.286;2022-10-26T10:17:47;3.47;;;2.53;;
13816;SDS011;6979;52.116;5.286;2022-10-26T10:20:19;3.40;;;2.70;;
13816;SDS011;6979;52.116;5.286;2022-10-26T10:22:55;3.50;;;3.17;;
13816;SDS011;6979;52.116;5.286;2022-10-26T10:25:30;3.07;;;2.80;;
13816;SDS011;6979;52.116;5.286;2022-10-26T10:28:01;4.20;;;3.47;;
13816;SDS011;6979;52.116;5.286;2022-10-26T10:30:30;2.97;;;2.67;;
13816;SDS011;6979;52.116;5.286;2022-10-26T10:33:05;3.40;;;3.10;;
13816;SDS011;6979;52.116;5.286;2022-10-26T10:35:35;3.03;;;2.63;;
13816;SDS011;6979;52.116;5.286;2022-10-26T10:38:05;4.37;;;2.80;;
13816;SDS011;6979;52.116;5.286;2022-10-26T10:40:32;3.30;;;2.80;;
13816;SDS011;6979;52.116;5.286;2022-10-26T10:43:05;4.10;;;2.80;;
13816;SDS011;6979;52.116;5.286;2022-10-26T10:45:38;2.97;;;2.33;;
13816;SDS011;6979;52.116;5.286;2022-10-26T10:48:12;2.77;;;1.83;;
13816;SDS011;6979;52.116;5.286;2022-10-26T10:50:49;4.03;;;2.53;;
13816;SDS011;6979;52.116;5.286;2022-10-26T10:53:18;2.80;;;2.57;;
13816;SDS011;6979;52.116;5.286;2022-10-26T10:55:54;2.53;;;2.33;;
13816;SDS011;6979;52.116;5.286;2022-10-26T10:58:34;2.63;;;2.40;;
13816;SDS011;6979;52.116;5.286;2022-10-26T11:01:09;4.87;;;2.40;;
13816;SDS011;6979;52.116;5.286;2022-10-26T11:03:42;4.40;;;2.60;;
13816;SDS011;6979;52.116;5.286;2022-10-26T11:06:18;5.37;;;2.90;;
13816;SDS011;6979;52.116;5.286;2022-10-26T11:08:48;3.20;;;2.90;;
13816;SDS011;6979;52.116;5.286;2022-10-26T11:11:20;3.77;;;2.60;;
13816;SDS011;6979;52.116;5.286;2022-10-26T11:13:53;2.63;;;2.37;;
13816;SDS011;6979;52.116;5.286;2022-10-26T11:16:24;3.97;;;3.57;;
13816;SDS011;6979;52.116;5.286;2022-10-26T11:18:55;3.57;;;3.10;;
13816;SDS011;6979;52.116;5.286;2022-10-26T11:21:27;4.17;;;2.87;;
13816;SDS011;6979;52.116;5.286;2022-10-26T11:23:56;4.37;;;2.73;;
13816;SDS011;6979;52.116;5.286;2022-10-26T11:26:37;3.50;;;2.83;;
13816;SDS011;6979;52.116;5.286;2022-10-26T11:29:14;4.80;;;3.27;;
13816;SDS011;6979;52.116;5.286;2022-10-26T11:31:57;2.43;;;2.10;;
13816;SDS011;6979;52.116;5.286;2022-10-26T11:34:30;5.27;;;2.90;;
13816;SDS011;6979;52.116;5.286;2022-10-26T11:37:02;2.67;;;2.10;;
13816;SDS011;6979;52.116;5.286;2022-10-26T11:39:37;3.47;;;2.87;;
13816;SDS011;6979;52.116;5.286;2022-10-26T11:42:15;3.53;;;2.03;;
13816;SDS011;6979;52.116;5.286;2022-10-26T11:44:50;2.50;;;2.30;;
13816;SDS011;6979;52.116;5.286;2022-10-26T11:47:23;4.50;;;1.90;;
13816;SDS011;6979;52.116;5.286;2022-10-26T11:50:00;2.73;;;2.50;;
13816;SDS011;6979;52.116;5.286;2022-10-26T11:52:32;2.60;;;2.40;;
13816;SDS011;6979;52.116;5.286;2022-10-26T11:55:07;3.83;;;2.50;;
13816;SDS011;6979;52.116;5.286;2022-10-26T11:57:41;5.07;;;2.10;;
13816;SDS011;6979;52.116;5.286;2022-10-26T12:00:28;3.20;;;2.50;;
13816;SDS011;6979;52.116;5.286;2022-10-26T12:02:56;3.40;;;2.70;;
13816;SDS011;6979;52.116;5.286;2022-10-26T12:05:31;2.83;;;2.30;;
13816;SDS011;6979;52.116;5.286;2022-10-26T12:08:02;2.13;;;1.87;;
13816;SDS011;6979;52.116;5.286;2022-10-26T12:10:34;3.07;;;2.77;;
13816;SDS011;6979;52.116;5.286;2022-10-26T12:13:08;2.30;;;2.10;;
13816;SDS011;6979;52.116;5.286;2022-10-26T12:15:47;2.70;;;2.23;;
13816;SDS011;6979;52.116;5.286;2022-10-26T12:18:19;3.60;;;2.00;;
13816;SDS011;6979;52.116;5.286;2022-10-26T12:20:58;3.23;;;2.10;;
13816;SDS011;6979;52.116;5.286;2022-10-26T12:23:29;2.63;;;2.30;;
13816;SDS011;6979;52.116;5.286;2022-10-26T12:41:22;4.20;;;2.10;;
13816;SDS011;6979;52.116;5.286;2022-10-26T12:43:54;2.50;;;1.93;;
13816;SDS011;6979;52.116;5.286;2022-10-26T12:52:32;2.60;;;2.10;;
13816;SDS011;6979;52.116;5.286;2022-10-26T13:04:39;2.37;;;2.17;;
13816;SDS011;6979;52.116;5.286;2022-10-26T13:07:34;2.60;;;2.40;;
13816;SDS011;6979;52.116;5.286;2022-10-26T13:10:04;4.60;;;2.30;;
13816;SDS011;6979;52.116;5.286;2022-10-26T13:12:46;2.90;;;2.10;;
13816;SDS011;6979;52.116;5.286;2022-10-26T13:15:22;2.63;;;2.37;;
13816;SDS011;6979;52.116;5.286;2022-10-26T13:17:54;2.80;;;2.53;;
13816;SDS011;6979;52.116;5.286;2022-10-26T13:20:24;2.27;;;2.07;;
13816;SDS011;6979;52.116;5.286;2022-10-26T13:22:53;3.83;;;2.17;;
13816;SDS011;6979;52.116;5.286;2022-10-26T13:25:21;2.27;;;2.07;;
13816;SDS011;6979;52.116;5.286;2022-10-26T13:28:00;3.03;;;1.90;;
13816;SDS011;6979;52.116;5.286;2022-10-26T13:33:19;2.33;;;2.13;;
13816;SDS011;6979;52.116;5.286;2022-10-26T13:35:53;3.03;;;2.10;;
13816;SDS011;6979;52.116;5.286;2022-10-26T13:38:24;4.47;;;3.10;;
13816;SDS011;6979;52.116;5.286;2022-10-26T13:40:59;3.20;;;2.43;;
13816;SDS011;6979;52.116;5.286;2022-10-26T13:43:31;1.97;;;1.77;;
13816;SDS011;6979;52.116;5.286;2022-10-26T13:46:01;5.67;;;2.70;;
13816;SDS011;6979;52.116;5.286;2022-10-26T13:48:32;3.30;;;2.53;;
13816;SDS011;6979;52.116;5.286;2022-10-26T13:51:04;2.30;;;2.07;;
13816;SDS011;6979;52.116;5.286;2022-10-26T13:53:44;2.63;;;2.23;;
13816;SDS011;6979;52.116;5.286;2022-10-26T13:56:18;1.97;;;1.83;;
13816;SDS011;6979;52.116;5.286;2022-10-26T13:58:51;4.40;;;2.53;;
13816;SDS011;6979;52.116;5.286;2022-10-26T14:01:23;2.50;;;2.10;;
13816;SDS011;6979;52.116;5.286;2022-10-26T14:03:52;2.60;;;2.37;;
13816;SDS011;6979;52.116;5.286;2022-10-26T14:06:23;3.60;;;2.27;;
13816;SDS011;6979;52.116;5.286;2022-10-26T14:08:54;2.10;;;1.90;;
13816;SDS011;6979;52.116;5.286;2022-10-26T14:11:27;2.07;;;1.77;;
13816;SDS011;6979;52.116;5.286;2022-10-26T14:13:58;2.00;;;1.80;;
13816;SDS011;6979;52.116;5.286;2022-10-26T14:16:28;2.07;;;1.87;;
13816;SDS011;6979;52.116;5.286;2022-10-26T14:18:56;6.63;;;2.83;;
13816;SDS011;6979;52.116;5.286;2022-10-26T14:21:23;3.07;;;1.83;;
13816;SDS011;6979;52.116;5.286;2022-10-26T14:23:51;2.50;;;1.80;;
13816;SDS011;6979;52.116;5.286;2022-10-26T14:26:23;3.67;;;1.87;;
13816;SDS011;6979;52.116;5.286;2022-10-26T14:28:52;1.77;;;1.67;;
13816;SDS011;6979;52.116;5.286;2022-10-26T14:31:21;2.57;;;1.40;;
13816;SDS011;6979;52.116;5.286;2022-10-26T14:33:50;1.87;;;1.70;;
13816;SDS011;6979;52.116;5.286;2022-10-26T14:36:18;2.33;;;1.53;;
13816;SDS011;6979;52.116;5.286;2022-10-26T14:38:48;2.00;;;1.50;;
13816;SDS011;6979;52.116;5.286;2022-10-26T14:41:18;1.70;;;1.60;;
13816;SDS011;6979;52.116;5.286;2022-10-26T14:49:22;3.07;;;1.47;;
13816;SDS011;6979;52.116;5.286;2022-10-26T14:51:54;3.60;;;1.60;;
13816;SDS011;6979;52.116;5.286;2022-10-26T14:54:24;1.93;;;1.60;;
13816;SDS011;6979;52.116;5.286;2022-10-26T14:56:52;1.50;;;1.40;;
13816;SDS011;6979;52.116;5.286;2022-10-26T14:59:21;2.23;;;1.70;;
13816;SDS011;6979;52.116;5.286;2022-10-26T15:01:52;2.50;;;1.63;;
13816;SDS011;6979;52.116;5.286;2022-10-26T15:04:27;1.87;;;1.70;;
13816;SDS011;6979;52.116;5.286;2022-10-26T15:07:14;2.03;;;1.73;;
13816;SDS011;6979;52.116;5.286;2022-10-26T15:09:42;6.13;;;1.70;;
13816;SDS011;6979;52.116;5.286;2022-10-26T15:12:17;3.50;;;2.07;;
13816;SDS011;6979;52.116;5.286;2022-10-26T15:14:46;3.23;;;2.30;;
13816;SDS011;6979;52.116;5.286;2022-10-26T15:17:18;3.50;;;2.50;;
13816;SDS011;6979;52.116;5.286;2022-10-26T15:19:49;3.13;;;2.30;;
13816;SDS011;6979;52.116;5.286;2022-10-26T15:22:24;3.77;;;2.30;;
13816;SDS011;6979;52.116;5.286;2022-10-26T15:24:53;3.83;;;2.57;;
13816;SDS011;6979;52.116;5.286;2022-10-26T15:27:22;3.90;;;1.80;;
13816;SDS011;6979;52.116;5.286;2022-10-26T15:29:50;1.77;;;1.57;;
13816;SDS011;6979;52.116;5.286;2022-10-26T15:32:34;2.60;;;1.90;;
13816;SDS011;6979;52.116;5.286;2022-10-26T15:35:09;2.40;;;2.00;;
13816;SDS011;6979;52.116;5.286;2022-10-26T15:37:39;3.03;;;2.07;;
13816;SDS011;6979;52.116;5.286;2022-10-26T15:40:06;3.33;;;2.10;;
13816;SDS011;6979;52.116;5.286;2022-10-26T15:42:34;3.40;;;2.77;;
13816;SDS011;6979;52.116;5.286;2022-10-26T15:45:03;3.43;;;2.23;;
13816;SDS011;6979;52.116;5.286;2022-10-26T15:47:32;4.37;;;2.13;;
13816;SDS011;6979;52.116;5.286;2022-10-26T15:50:00;4.07;;;2.33;;
13816;SDS011;6979;52.116;5.286;2022-10-26T15:52:27;2.73;;;2.40;;
13816;SDS011;6979;52.116;5.286;2022-10-26T15:54:54;2.60;;;2.00;;
13816;SDS011;6979;52.116;5.286;2022-10-26T15:57:27;3.00;;;2.27;;
13816;SDS011;6979;52.116;5.286;2022-10-26T15:59:54;4.10;;;2.40;;
13816;SDS011;6979;52.116;5.286;2022-10-26T16:02:21;5.37;;;2.33;;
13816;SDS011;6979;52.116;5.286;2022-10-26T16:04:47;3.03;;;1.77;;
13816;SDS011;6979;52.116;5.286;2022-10-26T16:07:16;3.20;;;2.43;;
13816;SDS011;6979;52.116;5.286;2022-10-26T16:09:43;8.17;;;3.53;;
13816;SDS011;6979;52.116;5.286;2022-10-26T16:12:11;5.13;;;2.50;;
13816;SDS011;6979;52.116;5.286;2022-10-26T16:14:39;2.27;;;2.07;;